sensor_id;sensor_type;location;lat;lon;timestamp;P1;durP1;ratioP1;P2;durP2;ratioP2
64932;SDS011;51446;53.850;10.662;2024-01-25T00:01:05;29.63;;;5.37;;
64932;SDS011;51446;53.850;10.662;2024-01-25T00:03:31;35.33;;;5.47;;
64932;SDS011;51446;53.850;10.662;2024-01-25T00:05:56;25.40;;;4.87;;
64932;SDS011;51446;53.850;10.662;2024-01-25T00:08:21;33.10;;;5.60;;
64932;SDS011;51446;53.850;10.662;2024-01-25T00:10:47;30.93;;;5.60;;
64932;SDS011;51446;53.850;10.662;2024-01-25T00:13:12;33.17;;;5.77;;
64932;SDS011;51446;53.850;10.662;2024-01-25T00:15:37;29.23;;;5.40;;
64932;SDS011;51446;53.850;10.662;2024-01-25T00:18:03;36.90;;;5.73;;
64932;SDS011;51446;53.850;10.662;2024-01-25T00:20:28;34.00;;;6.40;;
64932;SDS011;51446;53.850;10.662;2024-01-25T00:22:53;38.13;;;5.57;;
64932;SDS011;51446;53.850;10.662;2024-01-25T00:25:19;36.47;;;5.67;;
64932;SDS011;51446;53.850;10.662;2024-01-25T00:27:44;31.70;;;5.53;;
64932;SDS011;51446;53.850;10.662;2024-01-25T00:30:10;37.65;;;6.45;;
64932;SDS011;51446;53.850;10.662;2024-01-25T00:32:35;29.83;;;5.10;;
64932;SDS011;51446;53.850;10.662;2024-01-25T00:35:01;41.13;;;6.07;;
64932;SDS011;51446;53.850;10.662;2024-01-25T00:37:27;35.97;;;5.70;;
64932;SDS011;51446;53.850;10.662;2024-01-25T00:39:53;28.88;;;5.07;;
64932;SDS011;51446;53.850;10.662;2024-01-25T00:42:18;39.80;;;5.93;;
64932;SDS011;51446;53.850;10.662;2024-01-25T00:44:46;26.63;;;5.25;;
64932;SDS011;51446;53.850;10.662;2024-01-25T00:47:12;35.07;;;5.63;;
64932;SDS011;51446;53.850;10.662;2024-01-25T00:49:38;33.67;;;6.28;;
64932;SDS011;51446;53.850;10.662;2024-01-25T00:52:03;34.28;;;6.57;;
64932;SDS011;51446;53.850;10.662;2024-01-25T00:54:29;46.15;;;6.72;;
64932;SDS011;51446;53.850;10.662;2024-01-25T00:56:55;38.17;;;6.40;;
64932;SDS011;51446;53.850;10.662;2024-01-25T00:59:20;32.37;;;5.47;;
64932;SDS011;51446;53.850;10.662;2024-01-25T01:01:46;26.52;;;5.57;;
64932;SDS011;51446;53.850;10.662;2024-01-25T01:04:13;28.07;;;4.80;;
64932;SDS011;51446;53.850;10.662;2024-01-25T01:06:39;38.95;;;7.03;;
64932;SDS011;51446;53.850;10.662;2024-01-25T01:09:04;27.80;;;5.50;;
64932;SDS011;51446;53.850;10.662;2024-01-25T01:11:30;24.50;;;4.90;;
64932;SDS011;51446;53.850;10.662;2024-01-25T01:13:55;35.20;;;5.57;;
64932;SDS011;51446;53.850;10.662;2024-01-25T01:16:20;35.17;;;6.67;;
64932;SDS011;51446;53.850;10.662;2024-01-25T01:18:46;26.60;;;5.63;;
64932;SDS011;51446;53.850;10.662;2024-01-25T01:21:11;34.93;;;5.70;;
64932;SDS011;51446;53.850;10.662;2024-01-25T01:23:36;26.10;;;5.07;;
64932;SDS011;51446;53.850;10.662;2024-01-25T01:26:03;33.73;;;4.93;;
64932;SDS011;51446;53.850;10.662;2024-01-25T01:28:29;32.30;;;5.38;;
64932;SDS011;51446;53.850;10.662;2024-01-25T01:30:54;29.40;;;4.50;;
64932;SDS011;51446;53.850;10.662;2024-01-25T01:33:19;23.57;;;5.03;;
64932;SDS011;51446;53.850;10.662;2024-01-25T01:35:44;33.50;;;4.87;;
64932;SDS011;51446;53.850;10.662;2024-01-25T01:38:10;27.07;;;4.47;;
64932;SDS011;51446;53.850;10.662;2024-01-25T01:40:35;24.83;;;4.40;;
64932;SDS011;51446;53.850;10.662;2024-01-25T01:43:00;33.60;;;5.27;;
64932;SDS011;51446;53.850;10.662;2024-01-25T01:45:26;24.67;;;4.15;;
64932;SDS011;51446;53.850;10.662;2024-01-25T01:47:52;26.33;;;4.27;;
64932;SDS011;51446;53.850;10.662;2024-01-25T01:50:17;32.88;;;5.43;;
64932;SDS011;51446;53.850;10.662;2024-01-25T01:52:43;26.95;;;5.55;;
64932;SDS011;51446;53.850;10.662;2024-01-25T01:55:08;25.70;;;4.57;;
64932;SDS011;51446;53.850;10.662;2024-01-25T01:57:34;29.30;;;4.40;;
64932;SDS011;51446;53.850;10.662;2024-01-25T02:00:01;25.17;;;3.97;;
64932;SDS011;51446;53.850;10.662;2024-01-25T02:02:29;29.00;;;4.65;;
64932;SDS011;51446;53.850;10.662;2024-01-25T02:04:54;26.97;;;3.67;;
64932;SDS011;51446;53.850;10.662;2024-01-25T02:07:20;34.40;;;5.40;;
64932;SDS011;51446;53.850;10.662;2024-01-25T02:09:45;32.67;;;5.77;;
64932;SDS011;51446;53.850;10.662;2024-01-25T02:12:10;29.90;;;4.40;;
64932;SDS011;51446;53.850;10.662;2024-01-25T02:14:35;26.23;;;4.90;;
64932;SDS011;51446;53.850;10.662;2024-01-25T02:17:01;26.80;;;4.03;;
64932;SDS011;51446;53.850;10.662;2024-01-25T02:19:26;27.27;;;5.43;;
64932;SDS011;51446;53.850;10.662;2024-01-25T02:21:51;25.23;;;4.67;;
64932;SDS011;51446;53.850;10.662;2024-01-25T02:24:18;32.00;;;5.28;;
64932;SDS011;51446;53.850;10.662;2024-01-25T02:26:44;24.23;;;4.20;;
64932;SDS011;51446;53.850;10.662;2024-01-25T02:29:09;30.07;;;5.20;;
64932;SDS011;51446;53.850;10.662;2024-01-25T02:31:35;31.43;;;5.17;;
64932;SDS011;51446;53.850;10.662;2024-01-25T02:34:00;30.77;;;4.47;;
64932;SDS011;51446;53.850;10.662;2024-01-25T02:36:25;27.58;;;4.68;;
64932;SDS011;51446;53.850;10.662;2024-01-25T02:38:50;27.83;;;5.03;;
64932;SDS011;51446;53.850;10.662;2024-01-25T02:41:16;17.20;;;4.07;;
64932;SDS011;51446;53.850;10.662;2024-01-25T02:43:41;22.83;;;4.05;;
64932;SDS011;51446;53.850;10.662;2024-01-25T02:46:07;24.48;;;4.72;;
64932;SDS011;51446;53.850;10.662;2024-01-25T02:48:32;26.77;;;4.90;;
64932;SDS011;51446;53.850;10.662;2024-01-25T02:50:57;26.37;;;4.57;;
64932;SDS011;51446;53.850;10.662;2024-01-25T02:53:23;26.30;;;4.63;;
64932;SDS011;51446;53.850;10.662;2024-01-25T02:55:48;31.67;;;4.20;;
64932;SDS011;51446;53.850;10.662;2024-01-25T02:58:13;31.77;;;4.53;;
64932;SDS011;51446;53.850;10.662;2024-01-25T03:00:38;20.60;;;4.05;;
64932;SDS011;51446;53.850;10.662;2024-01-25T03:03:04;20.03;;;4.00;;
64932;SDS011;51446;53.850;10.662;2024-01-25T03:05:29;23.83;;;4.43;;
64932;SDS011;51446;53.850;10.662;2024-01-25T03:07:54;26.33;;;4.37;;
64932;SDS011;51446;53.850;10.662;2024-01-25T03:10:20;20.53;;;3.70;;
64932;SDS011;51446;53.850;10.662;2024-01-25T03:12:45;18.27;;;3.50;;
64932;SDS011;51446;53.850;10.662;2024-01-25T03:15:10;16.37;;;3.57;;
64932;SDS011;51446;53.850;10.662;2024-01-25T03:17:36;22.88;;;4.18;;
64932;SDS011;51446;53.850;10.662;2024-01-25T03:20:01;29.50;;;4.17;;
64932;SDS011;51446;53.850;10.662;2024-01-25T03:22:27;24.83;;;4.00;;
64932;SDS011;51446;53.850;10.662;2024-01-25T03:24:52;21.20;;;4.20;;
64932;SDS011;51446;53.850;10.662;2024-01-25T03:27:18;22.70;;;4.70;;
64932;SDS011;51446;53.850;10.662;2024-01-25T03:29:43;24.40;;;3.93;;
64932;SDS011;51446;53.850;10.662;2024-01-25T03:32:11;22.90;;;4.07;;
64932;SDS011;51446;53.850;10.662;2024-01-25T03:34:38;19.35;;;4.65;;
64932;SDS011;51446;53.850;10.662;2024-01-25T03:37:03;17.37;;;3.87;;
64932;SDS011;51446;53.850;10.662;2024-01-25T03:39:29;22.00;;;3.83;;
64932;SDS011;51446;53.850;10.662;2024-01-25T03:41:54;21.60;;;3.27;;
64932;SDS011;51446;53.850;10.662;2024-01-25T03:44:19;23.13;;;4.20;;
64932;SDS011;51446;53.850;10.662;2024-01-25T03:46:44;26.47;;;4.53;;
64932;SDS011;51446;53.850;10.662;2024-01-25T03:49:10;21.97;;;4.47;;
64932;SDS011;51446;53.850;10.662;2024-01-25T03:51:35;33.03;;;4.63;;
64932;SDS011;51446;53.850;10.662;2024-01-25T03:54:00;27.37;;;4.40;;
64932;SDS011;51446;53.850;10.662;2024-01-25T03:56:25;21.20;;;3.70;;
64932;SDS011;51446;53.850;10.662;2024-01-25T03:58:51;20.90;;;4.07;;
64932;SDS011;51446;53.850;10.662;2024-01-25T04:01:17;26.48;;;4.70;;
64932;SDS011;51446;53.850;10.662;2024-01-25T04:03:42;22.08;;;4.45;;
64932;SDS011;51446;53.850;10.662;2024-01-25T04:06:08;26.33;;;3.73;;
64932;SDS011;51446;53.850;10.662;2024-01-25T04:08:33;17.97;;;3.90;;
64932;SDS011;51446;53.850;10.662;2024-01-25T04:10:58;21.67;;;4.30;;
64932;SDS011;51446;53.850;10.662;2024-01-25T04:13:23;29.53;;;5.03;;
64932;SDS011;51446;53.850;10.662;2024-01-25T04:15:49;30.37;;;4.30;;
64932;SDS011;51446;53.850;10.662;2024-01-25T04:18:14;23.03;;;5.20;;
64932;SDS011;51446;53.850;10.662;2024-01-25T04:20:41;21.93;;;3.80;;
64932;SDS011;51446;53.850;10.662;2024-01-25T04:23:08;14.80;;;4.07;;
64932;SDS011;51446;53.850;10.662;2024-01-25T04:25:33;19.17;;;3.77;;
64932;SDS011;51446;53.850;10.662;2024-01-25T04:27:59;23.30;;;3.83;;
64932;SDS011;51446;53.850;10.662;2024-01-25T04:30:25;24.77;;;4.75;;
64932;SDS011;51446;53.850;10.662;2024-01-25T04:32:50;22.03;;;4.03;;
64932;SDS011;51446;53.850;10.662;2024-01-25T04:35:15;22.30;;;4.03;;
64932;SDS011;51446;53.850;10.662;2024-01-25T04:37:40;22.20;;;4.43;;
64932;SDS011;51446;53.850;10.662;2024-01-25T04:40:06;23.10;;;4.20;;
64932;SDS011;51446;53.850;10.662;2024-01-25T04:42:32;24.20;;;3.53;;
64932;SDS011;51446;53.850;10.662;2024-01-25T04:44:57;19.27;;;4.27;;
64932;SDS011;51446;53.850;10.662;2024-01-25T04:47:22;18.13;;;3.70;;
64932;SDS011;51446;53.850;10.662;2024-01-25T04:49:47;22.73;;;4.00;;
64932;SDS011;51446;53.850;10.662;2024-01-25T04:52:13;22.23;;;3.57;;
64932;SDS011;51446;53.850;10.662;2024-01-25T04:54:38;19.03;;;3.33;;
64932;SDS011;51446;53.850;10.662;2024-01-25T04:57:03;27.60;;;4.17;;
64932;SDS011;51446;53.850;10.662;2024-01-25T04:59:31;27.40;;;4.28;;
64932;SDS011;51446;53.850;10.662;2024-01-25T05:01:59;27.52;;;4.55;;
64932;SDS011;51446;53.850;10.662;2024-01-25T05:04:25;22.80;;;3.73;;
64932;SDS011;51446;53.850;10.662;2024-01-25T05:06:50;24.70;;;3.93;;
64932;SDS011;51446;53.850;10.662;2024-01-25T05:09:15;18.50;;;3.90;;
64932;SDS011;51446;53.850;10.662;2024-01-25T05:11:40;20.53;;;4.40;;
64932;SDS011;51446;53.850;10.662;2024-01-25T05:14:06;27.17;;;3.93;;
64932;SDS011;51446;53.850;10.662;2024-01-25T05:16:32;19.23;;;4.57;;
64932;SDS011;51446;53.850;10.662;2024-01-25T05:18:57;20.97;;;3.70;;
64932;SDS011;51446;53.850;10.662;2024-01-25T05:21:22;21.00;;;3.83;;
64932;SDS011;51446;53.850;10.662;2024-01-25T05:23:48;21.23;;;3.57;;
64932;SDS011;51446;53.850;10.662;2024-01-25T05:26:13;20.83;;;3.97;;
64932;SDS011;51446;53.850;10.662;2024-01-25T05:28:39;20.48;;;3.85;;
64932;SDS011;51446;53.850;10.662;2024-01-25T05:31:04;24.77;;;4.13;;
64932;SDS011;51446;53.850;10.662;2024-01-25T05:33:30;23.47;;;4.07;;
64932;SDS011;51446;53.850;10.662;2024-01-25T05:35:55;24.25;;;4.55;;
64932;SDS011;51446;53.850;10.662;2024-01-25T05:38:21;20.92;;;4.00;;
64932;SDS011;51446;53.850;10.662;2024-01-25T05:40:46;29.53;;;3.53;;
64932;SDS011;51446;53.850;10.662;2024-01-25T05:43:11;28.87;;;4.43;;
64932;SDS011;51446;53.850;10.662;2024-01-25T05:45:36;16.07;;;3.73;;
64932;SDS011;51446;53.850;10.662;2024-01-25T05:48:02;21.03;;;4.43;;
64932;SDS011;51446;53.850;10.662;2024-01-25T05:50:27;23.47;;;4.63;;
64932;SDS011;51446;53.850;10.662;2024-01-25T05:52:52;21.93;;;4.40;;
64932;SDS011;51446;53.850;10.662;2024-01-25T05:55:18;17.70;;;3.70;;
64932;SDS011;51446;53.850;10.662;2024-01-25T05:57:43;20.33;;;3.83;;
64932;SDS011;51446;53.850;10.662;2024-01-25T06:00:11;23.05;;;3.65;;
64932;SDS011;51446;53.850;10.662;2024-01-25T06:02:38;20.93;;;3.47;;
64932;SDS011;51446;53.850;10.662;2024-01-25T06:05:03;25.17;;;4.28;;
64932;SDS011;51446;53.850;10.662;2024-01-25T06:07:29;15.97;;;3.57;;
64932;SDS011;51446;53.850;10.662;2024-01-25T06:09:54;19.33;;;3.50;;
64932;SDS011;51446;53.850;10.662;2024-01-25T06:12:19;18.67;;;4.37;;
64932;SDS011;51446;53.850;10.662;2024-01-25T06:14:45;18.37;;;3.47;;
64932;SDS011;51446;53.850;10.662;2024-01-25T06:17:10;22.90;;;4.07;;
64932;SDS011;51446;53.850;10.662;2024-01-25T06:19:36;31.45;;;3.97;;
64932;SDS011;51446;53.850;10.662;2024-01-25T06:22:01;20.60;;;4.03;;
64932;SDS011;51446;53.850;10.662;2024-01-25T06:24:27;16.80;;;3.97;;
64932;SDS011;51446;53.850;10.662;2024-01-25T06:26:53;17.60;;;3.83;;
64932;SDS011;51446;53.850;10.662;2024-01-25T06:29:18;23.80;;;4.40;;
64932;SDS011;51446;53.850;10.662;2024-01-25T06:31:43;17.60;;;3.50;;
64932;SDS011;51446;53.850;10.662;2024-01-25T06:34:09;27.83;;;4.57;;
64932;SDS011;51446;53.850;10.662;2024-01-25T06:36:35;18.33;;;3.40;;
64932;SDS011;51446;53.850;10.662;2024-01-25T06:39:00;25.13;;;3.90;;
64932;SDS011;51446;53.850;10.662;2024-01-25T06:41:25;27.47;;;4.80;;
64932;SDS011;51446;53.850;10.662;2024-01-25T06:43:51;13.13;;;3.30;;
64932;SDS011;51446;53.850;10.662;2024-01-25T06:46:16;20.80;;;4.27;;
64932;SDS011;51446;53.850;10.662;2024-01-25T06:48:41;20.37;;;3.57;;
64932;SDS011;51446;53.850;10.662;2024-01-25T06:51:06;19.67;;;4.17;;
64932;SDS011;51446;53.850;10.662;2024-01-25T06:53:32;24.50;;;3.77;;
64932;SDS011;51446;53.850;10.662;2024-01-25T06:55:57;20.40;;;4.13;;
64932;SDS011;51446;53.850;10.662;2024-01-25T06:58:22;22.60;;;3.50;;
64932;SDS011;51446;53.850;10.662;2024-01-25T07:00:48;21.83;;;4.10;;
64932;SDS011;51446;53.850;10.662;2024-01-25T07:03:13;26.05;;;4.15;;
64932;SDS011;51446;53.850;10.662;2024-01-25T07:05:40;21.07;;;4.13;;
64932;SDS011;51446;53.850;10.662;2024-01-25T07:08:05;21.88;;;3.88;;
64932;SDS011;51446;53.850;10.662;2024-01-25T07:10:32;18.97;;;3.33;;
64932;SDS011;51446;53.850;10.662;2024-01-25T07:12:57;21.20;;;3.92;;
64932;SDS011;51446;53.850;10.662;2024-01-25T07:15:23;26.45;;;4.65;;
64932;SDS011;51446;53.850;10.662;2024-01-25T07:17:48;19.90;;;3.67;;
64932;SDS011;51446;53.850;10.662;2024-01-25T07:20:13;21.43;;;3.80;;
64932;SDS011;51446;53.850;10.662;2024-01-25T07:22:39;24.27;;;4.27;;
64932;SDS011;51446;53.850;10.662;2024-01-25T07:25:05;22.27;;;3.22;;
64932;SDS011;51446;53.850;10.662;2024-01-25T07:27:30;26.17;;;4.73;;
64932;SDS011;51446;53.850;10.662;2024-01-25T07:29:55;22.33;;;4.00;;
64932;SDS011;51446;53.850;10.662;2024-01-25T07:32:22;22.00;;;3.83;;
64932;SDS011;51446;53.850;10.662;2024-01-25T07:34:49;25.15;;;4.05;;
64932;SDS011;51446;53.850;10.662;2024-01-25T07:37:15;25.40;;;3.90;;
64932;SDS011;51446;53.850;10.662;2024-01-25T07:39:40;21.17;;;4.25;;
64932;SDS011;51446;53.850;10.662;2024-01-25T07:42:06;22.73;;;4.07;;
64932;SDS011;51446;53.850;10.662;2024-01-25T07:44:31;22.67;;;3.77;;
64932;SDS011;51446;53.850;10.662;2024-01-25T07:46:56;23.67;;;3.70;;
64932;SDS011;51446;53.850;10.662;2024-01-25T07:49:22;18.20;;;4.20;;
64932;SDS011;51446;53.850;10.662;2024-01-25T07:51:47;24.13;;;4.40;;
64932;SDS011;51446;53.850;10.662;2024-01-25T07:54:12;23.87;;;3.57;;
64932;SDS011;51446;53.850;10.662;2024-01-25T07:56:38;24.55;;;4.45;;
64932;SDS011;51446;53.850;10.662;2024-01-25T07:59:03;25.70;;;4.63;;
64932;SDS011;51446;53.850;10.662;2024-01-25T08:01:28;19.47;;;3.30;;
64932;SDS011;51446;53.850;10.662;2024-01-25T08:03:54;16.97;;;3.73;;
64932;SDS011;51446;53.850;10.662;2024-01-25T08:06:19;20.53;;;4.17;;
64932;SDS011;51446;53.850;10.662;2024-01-25T08:08:44;33.73;;;3.77;;
64932;SDS011;51446;53.850;10.662;2024-01-25T08:11:09;20.80;;;3.53;;
64932;SDS011;51446;53.850;10.662;2024-01-25T08:13:35;21.63;;;3.97;;
64932;SDS011;51446;53.850;10.662;2024-01-25T08:16:00;21.43;;;3.73;;
64932;SDS011;51446;53.850;10.662;2024-01-25T08:18:25;23.70;;;4.00;;
64932;SDS011;51446;53.850;10.662;2024-01-25T08:20:54;25.17;;;3.92;;
64932;SDS011;51446;53.850;10.662;2024-01-25T08:23:19;17.07;;;3.70;;
64932;SDS011;51446;53.850;10.662;2024-01-25T08:25:44;17.33;;;3.30;;
64932;SDS011;51446;53.850;10.662;2024-01-25T08:28:10;24.27;;;3.10;;
64932;SDS011;51446;53.850;10.662;2024-01-25T08:30:35;26.17;;;3.57;;
64932;SDS011;51446;53.850;10.662;2024-01-25T08:33:00;19.87;;;4.20;;
64932;SDS011;51446;53.850;10.662;2024-01-25T08:35:26;20.93;;;3.50;;
64932;SDS011;51446;53.850;10.662;2024-01-25T08:37:51;19.87;;;3.67;;
64932;SDS011;51446;53.850;10.662;2024-01-25T08:40:17;17.83;;;3.35;;
64932;SDS011;51446;53.850;10.662;2024-01-25T08:42:42;16.77;;;3.73;;
64932;SDS011;51446;53.850;10.662;2024-01-25T08:45:07;19.73;;;3.90;;
64932;SDS011;51446;53.850;10.662;2024-01-25T08:47:34;18.42;;;3.30;;
64932;SDS011;51446;53.850;10.662;2024-01-25T08:50:00;25.92;;;3.42;;
64932;SDS011;51446;53.850;10.662;2024-01-25T08:52:25;20.27;;;4.20;;
64932;SDS011;51446;53.850;10.662;2024-01-25T08:54:51;27.57;;;3.93;;
64932;SDS011;51446;53.850;10.662;2024-01-25T08:57:17;21.85;;;3.80;;
64932;SDS011;51446;53.850;10.662;2024-01-25T08:59:42;19.27;;;3.37;;
64932;SDS011;51446;53.850;10.662;2024-01-25T09:02:08;25.30;;;3.87;;
64932;SDS011;51446;53.850;10.662;2024-01-25T09:04:33;20.05;;;3.22;;
64932;SDS011;51446;53.850;10.662;2024-01-25T09:06:59;18.25;;;3.88;;
64932;SDS011;51446;53.850;10.662;2024-01-25T09:09:24;17.80;;;3.33;;
64932;SDS011;51446;53.850;10.662;2024-01-25T09:11:49;20.13;;;4.30;;
64932;SDS011;51446;53.850;10.662;2024-01-25T09:14:15;22.07;;;3.43;;
64932;SDS011;51446;53.850;10.662;2024-01-25T09:16:40;19.47;;;4.37;;
64932;SDS011;51446;53.850;10.662;2024-01-25T09:19:05;32.37;;;5.13;;
64932;SDS011;51446;53.850;10.662;2024-01-25T09:21:30;27.73;;;4.33;;
64932;SDS011;51446;53.850;10.662;2024-01-25T09:23:56;18.03;;;3.53;;
64932;SDS011;51446;53.850;10.662;2024-01-25T09:26:21;17.40;;;3.30;;
64932;SDS011;51446;53.850;10.662;2024-01-25T09:48:57;18.40;;;3.20;;
64932;SDS011;51446;53.850;10.662;2024-01-25T09:51:23;19.47;;;3.03;;
64932;SDS011;51446;53.850;10.662;2024-01-25T09:53:48;17.75;;;2.85;;
64932;SDS011;51446;53.850;10.662;2024-01-25T09:56:14;19.63;;;2.92;;
64932;SDS011;51446;53.850;10.662;2024-01-25T09:58:44;21.02;;;3.38;;
64932;SDS011;51446;53.850;10.662;2024-01-25T10:01:13;19.45;;;3.30;;
64932;SDS011;51446;53.850;10.662;2024-01-25T10:03:42;19.83;;;3.03;;
64932;SDS011;51446;53.850;10.662;2024-01-25T10:06:08;19.00;;;3.53;;
64932;SDS011;51446;53.850;10.662;2024-01-25T10:08:33;15.35;;;3.22;;
64932;SDS011;51446;53.850;10.662;2024-01-25T10:10:59;17.67;;;3.20;;
64932;SDS011;51446;53.850;10.662;2024-01-25T10:13:25;18.10;;;3.80;;
64932;SDS011;51446;53.850;10.662;2024-01-25T10:15:51;17.00;;;3.25;;
64932;SDS011;51446;53.850;10.662;2024-01-25T10:18:17;13.70;;;2.77;;
64932;SDS011;51446;53.850;10.662;2024-01-25T10:20:42;17.60;;;3.47;;
64932;SDS011;51446;53.850;10.662;2024-01-25T10:23:08;15.53;;;3.27;;
64932;SDS011;51446;53.850;10.662;2024-01-25T10:25:36;19.52;;;3.08;;
64932;SDS011;51446;53.850;10.662;2024-01-25T10:28:05;17.48;;;2.83;;
64932;SDS011;51446;53.850;10.662;2024-01-25T10:30:32;16.80;;;3.08;;
64932;SDS011;51446;53.850;10.662;2024-01-25T10:32:59;18.58;;;3.22;;
64932;SDS011;51446;53.850;10.662;2024-01-25T10:35:25;19.55;;;3.80;;
64932;SDS011;51446;53.850;10.662;2024-01-25T10:37:51;15.60;;;2.20;;
64932;SDS011;51446;53.850;10.662;2024-01-25T10:40:18;16.42;;;2.65;;
64932;SDS011;51446;53.850;10.662;2024-01-25T10:42:44;16.13;;;2.92;;
64932;SDS011;51446;53.850;10.662;2024-01-25T10:45:10;16.63;;;3.00;;
64932;SDS011;51446;53.850;10.662;2024-01-25T10:47:35;24.87;;;2.97;;
64932;SDS011;51446;53.850;10.662;2024-01-25T10:50:01;15.27;;;3.10;;
64932;SDS011;51446;53.850;10.662;2024-01-25T10:52:30;23.35;;;3.88;;
64932;SDS011;51446;53.850;10.662;2024-01-25T10:54:56;21.55;;;3.55;;
64932;SDS011;51446;53.850;10.662;2024-01-25T10:57:21;17.17;;;2.70;;
64932;SDS011;51446;53.850;10.662;2024-01-25T10:59:47;16.10;;;2.65;;
64932;SDS011;51446;53.850;10.662;2024-01-25T11:02:13;19.27;;;3.63;;
64932;SDS011;51446;53.850;10.662;2024-01-25T11:04:38;16.67;;;3.13;;
64932;SDS011;51446;53.850;10.662;2024-01-25T11:07:04;15.60;;;3.47;;
64932;SDS011;51446;53.850;10.662;2024-01-25T11:09:32;10.27;;;2.47;;
64932;SDS011;51446;53.850;10.662;2024-01-25T11:12:00;14.07;;;2.55;;
64932;SDS011;51446;53.850;10.662;2024-01-25T11:14:25;17.10;;;3.37;;
64932;SDS011;51446;53.850;10.662;2024-01-25T11:16:51;17.00;;;3.10;;
64932;SDS011;51446;53.850;10.662;2024-01-25T11:19:20;16.63;;;3.13;;
64932;SDS011;51446;53.850;10.662;2024-01-25T11:21:47;18.77;;;3.40;;
64932;SDS011;51446;53.850;10.662;2024-01-25T11:24:14;14.40;;;2.63;;
64932;SDS011;51446;53.850;10.662;2024-01-25T11:26:44;24.27;;;3.13;;
64932;SDS011;51446;53.850;10.662;2024-01-25T11:29:10;21.17;;;3.33;;
64932;SDS011;51446;53.850;10.662;2024-01-25T11:31:39;16.38;;;2.65;;
64932;SDS011;51446;53.850;10.662;2024-01-25T11:34:05;14.17;;;2.77;;
64932;SDS011;51446;53.850;10.662;2024-01-25T11:36:30;17.00;;;2.83;;
64932;SDS011;51446;53.850;10.662;2024-01-25T11:38:55;10.37;;;2.40;;
64932;SDS011;51446;53.850;10.662;2024-01-25T11:41:22;15.55;;;2.78;;
64932;SDS011;51446;53.850;10.662;2024-01-25T11:43:48;15.30;;;2.63;;
64932;SDS011;51446;53.850;10.662;2024-01-25T11:46:14;17.67;;;3.47;;
64932;SDS011;51446;53.850;10.662;2024-01-25T11:48:40;19.60;;;2.77;;
64932;SDS011;51446;53.850;10.662;2024-01-25T11:51:06;20.35;;;3.17;;
64932;SDS011;51446;53.850;10.662;2024-01-25T11:53:31;19.80;;;3.90;;
64932;SDS011;51446;53.850;10.662;2024-01-25T11:55:56;15.80;;;2.77;;
64932;SDS011;51446;53.850;10.662;2024-01-25T11:58:22;15.48;;;2.80;;
64932;SDS011;51446;53.850;10.662;2024-01-25T12:00:48;14.50;;;3.20;;
64932;SDS011;51446;53.850;10.662;2024-01-25T12:03:14;13.13;;;2.53;;
64932;SDS011;51446;53.850;10.662;2024-01-25T12:05:40;12.20;;;2.40;;
64932;SDS011;51446;53.850;10.662;2024-01-25T12:08:09;20.80;;;3.37;;
64932;SDS011;51446;53.850;10.662;2024-01-25T12:10:38;21.88;;;2.95;;
64932;SDS011;51446;53.850;10.662;2024-01-25T12:13:03;18.60;;;3.27;;
64932;SDS011;51446;53.850;10.662;2024-01-25T12:15:32;20.10;;;3.13;;
64932;SDS011;51446;53.850;10.662;2024-01-25T12:17:58;18.38;;;3.33;;
64932;SDS011;51446;53.850;10.662;2024-01-25T12:20:23;20.70;;;3.37;;
64932;SDS011;51446;53.850;10.662;2024-01-25T12:22:49;16.63;;;2.97;;
64932;SDS011;51446;53.850;10.662;2024-01-25T12:25:15;14.33;;;2.83;;
64932;SDS011;51446;53.850;10.662;2024-01-25T12:27:40;16.07;;;2.87;;
64932;SDS011;51446;53.850;10.662;2024-01-25T12:30:06;17.77;;;3.55;;
64932;SDS011;51446;53.850;10.662;2024-01-25T12:32:34;14.02;;;3.13;;
64932;SDS011;51446;53.850;10.662;2024-01-25T12:35:00;18.67;;;4.13;;
64932;SDS011;51446;53.850;10.662;2024-01-25T12:37:26;20.98;;;3.55;;
64932;SDS011;51446;53.850;10.662;2024-01-25T12:39:53;15.07;;;3.00;;
64932;SDS011;51446;53.850;10.662;2024-01-25T12:42:19;13.27;;;2.88;;
64932;SDS011;51446;53.850;10.662;2024-01-25T12:44:44;17.92;;;2.90;;
64932;SDS011;51446;53.850;10.662;2024-01-25T12:47:13;14.50;;;3.00;;
64932;SDS011;51446;53.850;10.662;2024-01-25T12:49:42;20.48;;;3.20;;
64932;SDS011;51446;53.850;10.662;2024-01-25T12:52:12;18.17;;;3.45;;
64932;SDS011;51446;53.850;10.662;2024-01-25T12:54:38;18.23;;;3.30;;
64932;SDS011;51446;53.850;10.662;2024-01-25T12:57:04;14.30;;;3.30;;
64932;SDS011;51446;53.850;10.662;2024-01-25T12:59:34;17.05;;;3.33;;
64932;SDS011;51446;53.850;10.662;2024-01-25T13:02:00;18.77;;;3.37;;
64932;SDS011;51446;53.850;10.662;2024-01-25T13:04:26;12.45;;;3.33;;
64932;SDS011;51446;53.850;10.662;2024-01-25T13:06:55;12.52;;;3.00;;
64932;SDS011;51446;53.850;10.662;2024-01-25T13:09:23;23.70;;;2.83;;
64932;SDS011;51446;53.850;10.662;2024-01-25T13:11:49;20.50;;;3.70;;
64932;SDS011;51446;53.850;10.662;2024-01-25T13:14:14;17.57;;;3.00;;
64932;SDS011;51446;53.850;10.662;2024-01-25T13:16:41;16.08;;;3.78;;
64932;SDS011;51446;53.850;10.662;2024-01-25T13:19:06;18.80;;;3.20;;
64932;SDS011;51446;53.850;10.662;2024-01-25T13:21:31;25.07;;;3.77;;
64932;SDS011;51446;53.850;10.662;2024-01-25T13:23:58;17.85;;;3.53;;
64932;SDS011;51446;53.850;10.662;2024-01-25T13:26:24;19.95;;;3.30;;
64932;SDS011;51446;53.850;10.662;2024-01-25T13:28:50;17.08;;;3.47;;
64932;SDS011;51446;53.850;10.662;2024-01-25T13:31:15;21.10;;;3.43;;
64932;SDS011;51446;53.850;10.662;2024-01-25T13:33:40;26.27;;;3.13;;
64932;SDS011;51446;53.850;10.662;2024-01-25T13:36:06;17.77;;;3.17;;
64932;SDS011;51446;53.850;10.662;2024-01-25T13:38:34;16.15;;;3.63;;
64932;SDS011;51446;53.850;10.662;2024-01-25T13:40:59;11.63;;;2.97;;
64932;SDS011;51446;53.850;10.662;2024-01-25T13:43:24;27.20;;;3.20;;
64932;SDS011;51446;53.850;10.662;2024-01-25T13:45:50;21.90;;;3.50;;
64932;SDS011;51446;53.850;10.662;2024-01-25T13:48:15;18.17;;;3.30;;
64932;SDS011;51446;53.850;10.662;2024-01-25T13:50:40;17.27;;;3.03;;
64932;SDS011;51446;53.850;10.662;2024-01-25T13:53:05;19.80;;;2.57;;
64932;SDS011;51446;53.850;10.662;2024-01-25T13:55:31;12.10;;;2.63;;
64932;SDS011;51446;53.850;10.662;2024-01-25T13:57:56;18.45;;;3.22;;
64932;SDS011;51446;53.850;10.662;2024-01-25T14:00:21;18.35;;;4.03;;
64932;SDS011;51446;53.850;10.662;2024-01-25T14:02:47;20.07;;;3.47;;
64932;SDS011;51446;53.850;10.662;2024-01-25T14:05:12;21.47;;;3.97;;
64932;SDS011;51446;53.850;10.662;2024-01-25T14:07:38;23.30;;;3.63;;
64932;SDS011;51446;53.850;10.662;2024-01-25T14:10:03;22.63;;;3.40;;
64932;SDS011;51446;53.850;10.662;2024-01-25T14:12:29;21.90;;;4.18;;
64932;SDS011;51446;53.850;10.662;2024-01-25T14:14:54;25.70;;;4.17;;
64932;SDS011;51446;53.850;10.662;2024-01-25T14:17:19;24.17;;;3.83;;
64932;SDS011;51446;53.850;10.662;2024-01-25T14:19:44;16.90;;;3.77;;
64932;SDS011;51446;53.850;10.662;2024-01-25T14:22:10;17.77;;;3.40;;
64932;SDS011;51446;53.850;10.662;2024-01-25T14:24:36;22.00;;;3.95;;
64932;SDS011;51446;53.850;10.662;2024-01-25T14:27:01;15.13;;;2.90;;
64932;SDS011;51446;53.850;10.662;2024-01-25T14:29:26;22.10;;;4.00;;
64932;SDS011;51446;53.850;10.662;2024-01-25T14:31:55;16.40;;;3.83;;